Time;durP1;ratioP1;P1;durP2;ratioP2;P2;SDS_P1;SDS_P2;PMS_P1;PMS_P2;Temp;Humidity;BMP_temperature;BMP_pressure;BME280_temperature;BME280_humidity;BME280_pressure;Samples;Min_cycle;Max_cycle;Signal;HPM_P1;HPM_P2
2023/08/22 00:01:06;;;;;;;8.57;3.60;;;;;;;;;;5041499;28;20136;-64
2023/08/22 00:03:32;;;;;;;6.63;3.90;;;;;;;;;;5034207;28;20060;-64
2023/08/22 00:05:59;;;;;;;8.85;4.30;;;;;;;;;;5022499;28;20089;-65
2023/08/22 00:08:25;;;;;;;11.40;4.20;;;;;;;;;;5023624;28;20606;-63
2023/08/22 00:10:51;;;;;;;9.45;4.18;;;;;;;;;;5043278;28;20464;-62
2023/08/22 00:13:18;;;;;;;5.97;4.20;;;;;;;;;;5042646;28;20108;-63
2023/08/22 00:15:46;;;;;;;6.93;4.43;;;;;;;;;;5024732;28;20057;-63
2023/08/22 00:18:13;;;;;;;5.78;3.72;;;;;;;;;;5023171;28;20054;-63
2023/08/22 00:20:39;;;;;;;9.32;4.22;;;;;;;;;;5006714;28;20407;-63
2023/08/22 00:23:05;;;;;;;6.32;3.67;;;;;;;;;;5016978;28;20140;-62
2023/08/22 00:25:32;;;;;;;7.22;4.13;;;;;;;;;;5017370;28;20762;-63
2023/08/22 00:27:58;;;;;;;12.05;3.90;;;;;;;;;;5002137;28;20133;-62
2023/08/22 00:30:25;;;;;;;6.88;3.75;;;;;;;;;;5002554;28;20250;-63
2023/08/22 00:32:51;;;;;;;7.45;4.10;;;;;;;;;;5004555;28;20558;-63
2023/08/22 00:35:18;;;;;;;9.13;4.00;;;;;;;;;;5022586;28;20089;-61
2023/08/22 00:37:44;;;;;;;7.55;4.40;;;;;;;;;;5006406;28;20054;-64
2023/08/22 00:40:11;;;;;;;5.82;3.47;;;;;;;;;;5006102;28;20432;-63
2023/08/22 00:42:37;;;;;;;7.28;3.90;;;;;;;;;;5005896;28;20165;-63
2023/08/22 00:45:04;;;;;;;8.80;3.97;;;;;;;;;;5014745;28;20084;-62
2023/08/22 00:47:30;;;;;;;9.20;4.22;;;;;;;;;;5026819;28;20054;-63
2023/08/22 00:49:57;;;;;;;6.95;3.75;;;;;;;;;;5043094;28;20053;-62
2023/08/22 00:52:23;;;;;;;8.90;4.28;;;;;;;;;;5026712;28;20049;-60
2023/08/22 00:54:50;;;;;;;6.65;3.35;;;;;;;;;;5025898;28;20046;-63
2023/08/22 00:57:16;;;;;;;8.63;3.80;;;;;;;;;;5025111;28;20064;-62
2023/08/22 00:59:43;;;;;;;10.00;4.53;;;;;;;;;;5026347;28;20080;-63
2023/08/22 01:02:10;;;;;;;10.18;4.18;;;;;;;;;;5023419;28;20058;-62
2023/08/22 01:04:37;;;;;;;4.93;3.47;;;;;;;;;;5022347;28;20058;-64
2023/08/22 01:07:10;;;;;;;6.88;3.78;;;;;;;;;;5030934;28;20476;-63
2023/08/22 01:09:40;;;;;;;8.27;3.83;;;;;;;;;;5005405;28;20054;-64
2023/08/22 01:12:12;;;;;;;10.77;4.03;;;;;;;;;;5009224;28;20234;-65
2023/08/22 01:14:41;;;;;;;8.40;4.28;;;;;;;;;;5025291;28;20104;-63
2023/08/22 01:17:08;;;;;;;8.70;3.90;;;;;;;;;;5035001;28;20214;-63
2023/08/22 01:19:35;;;;;;;9.30;3.78;;;;;;;;;;5045255;28;20061;-63
2023/08/22 01:22:02;;;;;;;6.15;3.67;;;;;;;;;;5037178;28;20065;-63
2023/08/22 01:24:29;;;;;;;10.90;3.85;;;;;;;;;;5004807;28;20054;-64
2023/08/22 01:26:55;;;;;;;10.25;4.07;;;;;;;;;;5005362;28;20061;-60
2023/08/22 01:29:44;;;;;;;8.68;3.95;;;;;;;;;;5004955;28;20058;-61
2023/08/22 01:32:18;;;;;;;8.25;4.10;;;;;;;;;;5028062;28;20562;-64
2023/08/22 01:34:45;;;;;;;8.98;3.78;;;;;;;;;;5045249;28;20053;-64
2023/08/22 01:37:13;;;;;;;12.43;3.95;;;;;;;;;;5022025;28;20136;-64
2023/08/22 01:39:41;;;;;;;10.77;4.10;;;;;;;;;;5024795;28;20634;-61
2023/08/22 01:42:08;;;;;;;5.47;3.30;;;;;;;;;;5026652;28;20509;-62
2023/08/22 01:44:36;;;;;;;12.95;3.65;;;;;;;;;;5019575;28;20054;-64
2023/08/22 01:47:03;;;;;;;7.82;3.92;;;;;;;;;;5004870;28;20059;-64
2023/08/22 01:49:29;;;;;;;6.60;3.65;;;;;;;;;;5020406;28;20407;-62
2023/08/22 01:51:58;;;;;;;4.20;3.10;;;;;;;;;;5013934;28;20054;-65
2023/08/22 01:54:24;;;;;;;6.43;3.83;;;;;;;;;;5024443;28;20137;-64
2023/08/22 01:56:51;;;;;;;9.45;3.63;;;;;;;;;;5044130;28;20065;-65
2023/08/22 01:59:17;;;;;;;6.70;4.05;;;;;;;;;;5041511;28;20511;-62
2023/08/22 02:01:43;;;;;;;5.97;3.65;;;;;;;;;;5005677;28;20136;-65
2023/08/22 02:04:10;;;;;;;7.80;4.00;;;;;;;;;;5005526;28;20440;-64
2023/08/22 02:06:36;;;;;;;11.48;3.78;;;;;;;;;;5005035;28;20141;-62
2023/08/22 02:09:05;;;;;;;6.75;3.95;;;;;;;;;;5024186;28;20111;-64
2023/08/22 02:11:31;;;;;;;8.52;3.67;;;;;;;;;;5038671;28;20153;-62
2023/08/22 02:13:58;;;;;;;9.07;4.30;;;;;;;;;;5024319;28;20132;-63
2023/08/22 02:16:24;;;;;;;8.63;3.67;;;;;;;;;;5024527;28;20136;-63
2023/08/22 02:18:51;;;;;;;9.18;4.43;;;;;;;;;;5024493;28;20061;-64
2023/08/22 02:21:17;;;;;;;8.18;3.95;;;;;;;;;;5023332;28;20073;-65
2023/08/22 02:23:43;;;;;;;5.60;3.67;;;;;;;;;;5030059;28;20204;-65
2023/08/22 02:26:10;;;;;;;8.02;4.13;;;;;;;;;;5043846;28;20061;-63
2023/08/22 02:28:36;;;;;;;4.85;3.90;;;;;;;;;;5043914;28;20113;-64
2023/08/22 02:31:02;;;;;;;9.52;4.53;;;;;;;;;;5028965;28;20060;-63
2023/08/22 02:33:29;;;;;;;7.55;4.18;;;;;;;;;;5004262;28;20161;-66
2023/08/22 02:35:56;;;;;;;8.85;4.20;;;;;;;;;;5003678;28;20054;-62
2023/08/22 02:38:22;;;;;;;5.38;3.92;;;;;;;;;;5003404;28;20537;-63
2023/08/22 02:40:49;;;;;;;10.18;4.68;;;;;;;;;;5010302;28;20050;-63
2023/08/22 02:43:15;;;;;;;5.88;4.03;;;;;;;;;;5032313;28;20139;-62
2023/08/22 02:45:44;;;;;;;8.68;4.47;;;;;;;;;;5043670;28;20509;-63
2023/08/22 02:48:10;;;;;;;6.63;4.03;;;;;;;;;;5043829;28;20104;-63
2023/08/22 02:50:36;;;;;;;9.45;3.75;;;;;;;;;;5041271;28;20057;-63
2023/08/22 02:53:03;;;;;;;8.73;4.15;;;;;;;;;;5018527;28;20112;-63
2023/08/22 02:55:30;;;;;;;7.82;3.95;;;;;;;;;;5014171;28;20616;-62
2023/08/22 02:57:57;;;;;;;8.85;4.00;;;;;;;;;;5019010;28;20054;-63
2023/08/22 03:00:24;;;;;;;9.40;4.00;;;;;;;;;;5003722;28;20489;-60
2023/08/22 03:02:51;;;;;;;5.93;3.40;;;;;;;;;;5004345;28;20058;-62
2023/08/22 03:05:18;;;;;;;8.05;4.30;;;;;;;;;;5024660;28;20528;-62
2023/08/22 03:07:44;;;;;;;6.88;3.88;;;;;;;;;;5042731;28;20539;-63
2023/08/22 03:10:11;;;;;;;7.13;4.00;;;;;;;;;;5043655;28;20056;-62
2023/08/22 03:12:37;;;;;;;6.60;3.85;;;;;;;;;;5030608;28;20410;-63
2023/08/22 03:15:04;;;;;;;8.85;3.53;;;;;;;;;;5023810;28;20112;-63
2023/08/22 03:17:30;;;;;;;11.50;3.55;;;;;;;;;;5023430;28;20049;-63
2023/08/22 03:19:57;;;;;;;8.15;3.67;;;;;;;;;;5032540;28;20082;-61
2023/08/22 03:22:24;;;;;;;11.18;3.97;;;;;;;;;;5024849;28;20054;-59
2023/08/22 03:24:50;;;;;;;5.00;3.22;;;;;;;;;;5005875;28;20089;-60
2023/08/22 03:27:17;;;;;;;5.78;3.42;;;;;;;;;;5023193;28;20058;-64
2023/08/22 03:29:43;;;;;;;13.30;3.83;;;;;;;;;;5024023;28;20064;-64
2023/08/22 03:32:10;;;;;;;8.48;3.92;;;;;;;;;;5019724;28;20053;-63
2023/08/22 03:34:36;;;;;;;5.78;3.03;;;;;;;;;;5034865;28;20049;-63
2023/08/22 03:37:03;;;;;;;8.32;3.55;;;;;;;;;;5042822;28;20060;-60
2023/08/22 03:39:29;;;;;;;5.47;3.15;;;;;;;;;;5040270;28;20064;-63
2023/08/22 03:41:55;;;;;;;6.55;3.83;;;;;;;;;;5032520;28;20468;-63
2023/08/22 03:44:22;;;;;;;6.78;3.70;;;;;;;;;;5037524;28;20144;-60
2023/08/22 03:46:48;;;;;;;12.23;4.40;;;;;;;;;;5042974;28;20174;-60
2023/08/22 03:49:16;;;;;;;5.43;3.55;;;;;;;;;;5032644;28;20129;-64
2023/08/22 03:51:42;;;;;;;12.57;3.78;;;;;;;;;;5003700;28;20062;-63
2023/08/22 03:54:09;;;;;;;9.02;3.97;;;;;;;;;;5009323;28;20143;-59
2023/08/22 03:56:35;;;;;;;5.57;3.55;;;;;;;;;;5003169;28;20504;-59
2023/08/22 03:59:01;;;;;;;6.72;3.33;;;;;;;;;;5003368;28;20050;-63
2023/08/22 04:01:28;;;;;;;6.13;3.38;;;;;;;;;;5003375;28;20141;-61
2023/08/22 04:03:55;;;;;;;10.60;3.65;;;;;;;;;;5032016;28;20499;-63
2023/08/22 04:06:22;;;;;;;5.47;3.47;;;;;;;;;;5031894;28;20903;-62
2023/08/22 04:08:48;;;;;;;8.90;4.20;;;;;;;;;;5040950;28;20099;-60
2023/08/22 04:11:14;;;;;;;8.35;3.72;;;;;;;;;;5034866;28;20795;-62
2023/08/22 04:13:41;;;;;;;4.03;3.47;;;;;;;;;;5044058;28;20052;-60
2023/08/22 04:16:08;;;;;;;9.07;4.03;;;;;;;;;;5044616;28;20053;-63
2023/08/22 04:18:34;;;;;;;6.68;3.85;;;;;;;;;;5039208;28;20528;-62
2023/08/22 04:21:01;;;;;;;9.23;4.47;;;;;;;;;;5043853;28;20107;-62
2023/08/22 04:23:28;;;;;;;11.02;4.25;;;;;;;;;;5026716;28;20078;-63
2023/08/22 04:25:54;;;;;;;8.55;3.88;;;;;;;;;;5034882;28;20530;-63
2023/08/22 04:28:21;;;;;;;7.30;3.83;;;;;;;;;;5035905;28;20057;-63
2023/08/22 04:30:48;;;;;;;9.40;4.30;;;;;;;;;;5016915;28;20532;-62
2023/08/22 04:33:15;;;;;;;6.22;4.10;;;;;;;;;;5005986;28;20465;-61
2023/08/22 04:35:41;;;;;;;7.35;4.13;;;;;;;;;;5022318;28;20521;-61
2023/08/22 04:38:08;;;;;;;6.82;4.13;;;;;;;;;;5024409;28;20076;-63
2023/08/22 04:40:34;;;;;;;6.10;3.90;;;;;;;;;;5024495;28;20054;-62
2023/08/22 04:43:00;;;;;;;7.18;4.50;;;;;;;;;;5019780;28;20537;-65
2023/08/22 04:45:27;;;;;;;5.60;3.38;;;;;;;;;;5026212;28;20050;-65
2023/08/22 04:47:53;;;;;;;7.85;4.10;;;;;;;;;;5023667;28;20053;-57
2023/08/22 04:50:20;;;;;;;7.10;3.65;;;;;;;;;;5025346;28;20161;-63
2023/08/22 04:52:46;;;;;;;7.05;3.35;;;;;;;;;;5025618;28;20053;-64
2023/08/22 04:55:13;;;;;;;8.23;4.57;;;;;;;;;;5019084;28;20516;-63
2023/08/22 04:57:39;;;;;;;9.35;4.65;;;;;;;;;;5025039;28;20057;-61
2023/08/22 05:00:09;;;;;;;9.00;4.55;;;;;;;;;;5025194;28;20050;-63
2023/08/22 05:02:36;;;;;;;8.70;5.53;;;;;;;;;;5021312;28;20081;-63
2023/08/22 05:05:03;;;;;;;10.45;4.95;;;;;;;;;;5025067;28;20058;-61
2023/08/22 05:07:30;;;;;;;8.38;4.72;;;;;;;;;;5019833;28;20063;-62
2023/08/22 05:09:57;;;;;;;7.13;4.32;;;;;;;;;;5014348;28;20547;-61
2023/08/22 05:12:23;;;;;;;7.25;4.07;;;;;;;;;;5030038;28;20050;-62
2023/08/22 05:14:49;;;;;;;9.05;4.75;;;;;;;;;;5033929;28;20053;-62
2023/08/22 05:17:16;;;;;;;10.88;5.03;;;;;;;;;;5040086;28;20054;-60
2023/08/22 05:19:42;;;;;;;7.00;4.75;;;;;;;;;;5029510;28;20496;-64
2023/08/22 05:22:09;;;;;;;10.52;4.93;;;;;;;;;;5023424;28;20168;-65
2023/08/22 05:24:36;;;;;;;9.32;5.15;;;;;;;;;;5014383;28;20085;-64
2023/08/22 05:27:02;;;;;;;11.90;4.95;;;;;;;;;;5021461;28;20124;-60
2023/08/22 05:29:29;;;;;;;7.07;4.93;;;;;;;;;;5023793;28;20574;-63
2023/08/22 05:31:55;;;;;;;9.93;5.80;;;;;;;;;;5030800;28;20133;-60
2023/08/22 05:34:22;;;;;;;7.85;4.57;;;;;;;;;;5044246;28;20053;-61
2023/08/22 05:36:48;;;;;;;10.90;5.25;;;;;;;;;;5029986;28;20061;-56
2023/08/22 05:39:14;;;;;;;6.35;4.45;;;;;;;;;;5015753;28;20128;-66
2023/08/22 05:41:41;;;;;;;9.25;5.00;;;;;;;;;;5027354;28;20500;-61
2023/08/22 05:44:07;;;;;;;9.07;4.88;;;;;;;;;;5044306;28;20514;-66
2023/08/22 05:46:34;;;;;;;10.63;4.50;;;;;;;;;;5035914;28;20050;-65
2023/08/22 05:49:00;;;;;;;8.25;4.18;;;;;;;;;;5024480;28;20448;-67
2023/08/22 05:51:27;;;;;;;6.32;4.10;;;;;;;;;;5017599;28;20137;-65
2023/08/22 05:53:53;;;;;;;7.93;4.55;;;;;;;;;;5024085;28;20500;-65
2023/08/22 05:56:19;;;;;;;7.00;4.00;;;;;;;;;;5013106;28;20053;-66
2023/08/22 05:58:46;;;;;;;8.40;3.53;;;;;;;;;;5023131;28;20070;-65
2023/08/22 06:01:13;;;;;;;4.38;3.20;;;;;;;;;;5023660;28;20505;-66
2023/08/22 06:03:39;;;;;;;8.93;3.78;;;;;;;;;;5010935;28;20052;-65
2023/08/22 06:06:06;;;;;;;10.02;4.50;;;;;;;;;;5038231;28;20108;-62
2023/08/22 06:08:32;;;;;;;6.90;4.20;;;;;;;;;;5036032;28;20077;-66
2023/08/22 06:10:59;;;;;;;6.35;3.92;;;;;;;;;;5036046;28;20046;-66
2023/08/22 06:13:25;;;;;;;6.45;3.28;;;;;;;;;;5027467;28;20527;-64
2023/08/22 06:15:51;;;;;;;5.10;3.08;;;;;;;;;;5041269;28;20057;-66
2023/08/22 06:18:18;;;;;;;5.95;3.17;;;;;;;;;;5022874;28;20133;-63
2023/08/22 06:20:46;;;;;;;10.68;3.00;;;;;;;;;;5004877;28;20113;-66
2023/08/22 06:23:12;;;;;;;2.70;2.25;;;;;;;;;;5023272;28;20053;-63
2023/08/22 06:25:39;;;;;;;4.72;2.40;;;;;;;;;;5032898;28;20113;-57
2023/08/22 06:28:06;;;;;;;7.05;2.45;;;;;;;;;;5022361;28;20065;-58
2023/08/22 06:30:32;;;;;;;4.05;2.38;;;;;;;;;;5016129;28;20111;-58
2023/08/22 06:32:59;;;;;;;11.45;2.88;;;;;;;;;;5022609;28;20401;-58
2023/08/22 06:35:27;;;;;;;3.63;2.22;;;;;;;;;;5018584;28;20065;-57
2023/08/22 06:37:54;;;;;;;4.25;2.30;;;;;;;;;;5012676;28;20058;-57
2023/08/22 06:40:22;;;;;;;4.50;2.13;;;;;;;;;;5020676;28;20217;-53
2023/08/22 06:42:49;;;;;;;5.07;2.50;;;;;;;;;;5025474;28;20058;-57
2023/08/22 06:45:15;;;;;;;4.47;2.20;;;;;;;;;;5024427;28;20053;-56
2023/08/22 06:47:42;;;;;;;5.50;2.53;;;;;;;;;;5022944;28;20068;-58
2023/08/22 06:50:09;;;;;;;4.40;2.30;;;;;;;;;;5022276;28;20508;-59
2023/08/22 06:52:36;;;;;;;4.75;2.60;;;;;;;;;;5023777;28;20669;-58
2023/08/22 06:55:02;;;;;;;4.18;2.67;;;;;;;;;;5022965;28;20224;-58
2023/08/22 06:57:29;;;;;;;4.55;2.65;;;;;;;;;;5023043;28;20510;-58
2023/08/22 06:59:55;;;;;;;4.63;2.42;;;;;;;;;;5022340;28;20054;-55
2023/08/22 07:02:21;;;;;;;4.72;2.80;;;;;;;;;;5033350;28;20064;-58
2023/08/22 07:04:48;;;;;;;3.70;2.53;;;;;;;;;;5039170;28;20583;-55
2023/08/22 07:07:15;;;;;;;7.97;3.05;;;;;;;;;;5031085;28;20060;-59
2023/08/22 07:09:41;;;;;;;6.32;2.92;;;;;;;;;;5027896;28;20085;-56
2023/08/22 07:12:08;;;;;;;6.97;2.33;;;;;;;;;;5035471;28;20658;-58
2023/08/22 07:14:36;;;;;;;4.68;2.90;;;;;;;;;;5034674;28;20064;-58
2023/08/22 07:17:03;;;;;;;4.30;2.28;;;;;;;;;;5033396;28;20049;-60
2023/08/22 07:19:29;;;;;;;6.32;2.10;;;;;;;;;;5029614;28;20619;-56
2023/08/22 07:22:07;;;;;;;6.70;2.30;;;;;;;;;;5021500;28;20566;-57
2023/08/22 07:24:33;;;;;;;5.43;2.50;;;;;;;;;;5021912;28;20058;-58
2023/08/22 07:27:00;;;;;;;6.57;3.08;;;;;;;;;;5026453;28;20635;-56
2023/08/22 07:29:26;;;;;;;2.95;2.22;;;;;;;;;;5026524;28;20061;-58
2023/08/22 07:31:57;;;;;;;6.10;2.65;;;;;;;;;;5026943;28;20053;-56
2023/08/22 07:34:24;;;;;;;5.28;2.40;;;;;;;;;;5042608;28;20053;-58
2023/08/22 07:36:54;;;;;;;7.88;2.33;;;;;;;;;;5038221;28;20100;-58
2023/08/22 07:39:21;;;;;;;7.70;2.60;;;;;;;;;;5022299;28;20056;-56
2023/08/22 07:41:47;;;;;;;5.20;2.25;;;;;;;;;;5025375;28;20061;-58
2023/08/22 07:44:14;;;;;;;4.97;2.20;;;;;;;;;;5022916;28;20104;-36
2023/08/22 07:46:40;;;;;;;4.47;2.60;;;;;;;;;;5023254;28;20234;-36
2023/08/22 07:49:07;;;;;;;3.63;2.35;;;;;;;;;;5021762;28;20224;-36
2023/08/22 07:51:36;;;;;;;5.22;2.63;;;;;;;;;;5019202;28;20061;-37
2023/08/22 07:54:03;;;;;;;5.55;2.90;;;;;;;;;;5019427;28;20092;-37
2023/08/22 07:56:29;;;;;;;3.50;2.13;;;;;;;;;;5016624;28;20070;-36
2023/08/22 07:58:56;;;;;;;4.35;2.00;;;;;;;;;;5021692;28;20560;-36
2023/08/22 08:01:23;;;;;;;5.45;3.13;;;;;;;;;;5006004;28;20057;-36
2023/08/22 08:03:49;;;;;;;6.90;2.17;;;;;;;;;;5029212;28;20172;-38
2023/08/22 08:06:16;;;;;;;7.53;2.25;;;;;;;;;;5042093;28;20058;-54
2023/08/22 08:08:44;;;;;;;3.60;1.80;;;;;;;;;;5039426;28;20085;-56
2023/08/22 08:11:11;;;;;;;4.50;1.67;;;;;;;;;;5023129;28;20041;-55
2023/08/22 08:13:38;;;;;;;7.75;2.47;;;;;;;;;;5019308;28;20116;-57
2023/08/22 08:16:06;;;;;;;4.30;1.88;;;;;;;;;;5019361;28;20054;-55
2023/08/22 08:18:33;;;;;;;3.95;2.10;;;;;;;;;;5018927;28;20053;-56
2023/08/22 08:20:59;;;;;;;5.53;1.98;;;;;;;;;;5009060;28;20058;-56
2023/08/22 08:23:26;;;;;;;3.65;1.90;;;;;;;;;;5006355;28;20141;-55
2023/08/22 08:25:53;;;;;;;3.95;1.83;;;;;;;;;;5019052;28;20153;-54
2023/08/22 08:28:19;;;;;;;4.97;1.48;;;;;;;;;;5019298;28;20140;-52
2023/08/22 08:30:45;;;;;;;3.17;1.55;;;;;;;;;;5026460;28;20617;-54
2023/08/22 08:33:12;;;;;;;3.20;1.60;;;;;;;;;;5016423;28;20054;-56
2023/08/22 08:35:38;;;;;;;3.80;1.40;;;;;;;;;;5021559;28;20539;-55
2023/08/22 08:38:05;;;;;;;3.78;1.52;;;;;;;;;;5019203;28;20050;-55
2023/08/22 08:40:35;;;;;;;3.13;1.40;;;;;;;;;;5019671;28;20140;-56
2023/08/22 08:43:03;;;;;;;10.93;1.73;;;;;;;;;;5018638;28;20145;-57
2023/08/22 08:45:32;;;;;;;4.80;1.58;;;;;;;;;;5001220;28;20055;-59
2023/08/22 08:47:59;;;;;;;3.63;1.60;;;;;;;;;;5024044;28;20058;-57
2023/08/22 08:50:26;;;;;;;3.13;1.65;;;;;;;;;;5028689;28;20729;-61
2023/08/22 08:52:53;;;;;;;2.45;1.30;;;;;;;;;;5034655;28;20050;-56
2023/08/22 08:55:19;;;;;;;5.90;1.55;;;;;;;;;;5023344;28;20062;-56
2023/08/22 08:57:47;;;;;;;7.35;1.80;;;;;;;;;;5019988;28;20058;-57
2023/08/22 09:00:15;;;;;;;2.10;1.45;;;;;;;;;;5024222;28;20152;-57
2023/08/22 09:02:41;;;;;;;3.78;1.67;;;;;;;;;;5022808;28;20430;-56
2023/08/22 09:05:09;;;;;;;2.90;1.27;;;;;;;;;;5024977;28;20061;-59
2023/08/22 09:07:36;;;;;;;3.13;1.38;;;;;;;;;;5029520;28;20080;-58
2023/08/22 09:10:04;;;;;;;2.38;1.20;;;;;;;;;;5032533;28;20128;-57
2023/08/22 09:12:32;;;;;;;2.58;1.50;;;;;;;;;;5024904;28;20069;-58
2023/08/22 09:14:58;;;;;;;4.18;1.30;;;;;;;;;;5023235;28;20132;-58
2023/08/22 09:17:27;;;;;;;4.32;1.60;;;;;;;;;;5028717;28;20050;-54
2023/08/22 09:19:54;;;;;;;10.43;2.45;;;;;;;;;;5020965;28;20076;-58
2023/08/22 09:22:27;;;;;;;2.33;1.67;;;;;;;;;;5011361;28;20066;-57
2023/08/22 09:24:54;;;;;;;4.05;1.10;;;;;;;;;;5010994;28;20050;-59
2023/08/22 09:27:22;;;;;;;2.05;1.00;;;;;;;;;;5014046;28;20056;-57
2023/08/22 09:29:48;;;;;;;3.40;1.05;;;;;;;;;;5004671;28;20128;-54
2023/08/22 09:32:15;;;;;;;4.57;1.50;;;;;;;;;;5033082;28;20574;-57
2023/08/22 09:34:51;;;;;;;1.77;0.90;;;;;;;;;;5021760;28;20141;-56
2023/08/22 09:37:28;;;;;;;2.17;1.17;;;;;;;;;;5019398;28;20069;-57
2023/08/22 09:39:55;;;;;;;3.80;1.85;;;;;;;;;;5010457;28;20523;-59
2023/08/22 09:42:22;;;;;;;2.55;1.17;;;;;;;;;;5015018;28;20119;-57
2023/08/22 09:44:48;;;;;;;9.23;1.67;;;;;;;;;;5025274;28;20057;-58
2023/08/22 09:47:16;;;;;;;2.72;1.23;;;;;;;;;;5024565;28;20167;-58
2023/08/22 09:49:44;;;;;;;2.55;1.20;;;;;;;;;;5036316;28;20141;-58
2023/08/22 09:52:10;;;;;;;6.00;1.58;;;;;;;;;;5022803;28;20194;-59
2023/08/22 09:54:37;;;;;;;4.00;1.48;;;;;;;;;;5023796;28;20636;-58
2023/08/22 09:57:03;;;;;;;5.40;1.67;;;;;;;;;;5026233;28;20097;-56
2023/08/22 09:59:30;;;;;;;7.13;1.30;;;;;;;;;;5020667;28;20460;-57
2023/08/22 10:01:58;;;;;;;3.95;1.35;;;;;;;;;;5041473;28;20081;-58
2023/08/22 10:04:25;;;;;;;3.95;1.30;;;;;;;;;;5025969;28;20175;-58
2023/08/22 10:06:52;;;;;;;8.45;1.70;;;;;;;;;;5022476;28;20172;-60
2023/08/22 10:09:20;;;;;;;5.28;1.42;;;;;;;;;;5013531;28;20045;-58
2023/08/22 10:11:48;;;;;;;2.50;1.50;;;;;;;;;;5013969;28;20539;-60
2023/08/22 10:14:29;;;;;;;4.30;1.70;;;;;;;;;;5028919;28;20165;-59
2023/08/22 10:16:56;;;;;;;6.13;1.65;;;;;;;;;;5023343;28;20058;-59
2023/08/22 10:19:26;;;;;;;5.55;2.00;;;;;;;;;;5022673;28;20054;-55
2023/08/22 10:21:56;;;;;;;3.60;1.80;;;;;;;;;;5022173;28;20120;-56
2023/08/22 10:24:29;;;;;;;4.75;2.20;;;;;;;;;;5026274;28;20144;-60
2023/08/22 10:27:02;;;;;;;6.75;1.80;;;;;;;;;;5037486;28;20053;-60
2023/08/22 10:29:46;;;;;;;3.75;2.20;;;;;;;;;;5026920;28;20064;-61
2023/08/22 10:32:13;;;;;;;8.77;2.58;;;;;;;;;;5023129;28;20054;-60
2023/08/22 10:34:39;;;;;;;7.15;3.45;;;;;;;;;;5023412;28;20058;-59
2023/08/22 10:37:12;;;;;;;6.00;2.08;;;;;;;;;;5022721;28;20055;-58
2023/08/22 10:39:39;;;;;;;6.78;2.10;;;;;;;;;;5026243;28;20176;-60
2023/08/22 10:42:07;;;;;;;7.93;2.10;;;;;;;;;;5040230;28;20433;-59
2023/08/22 10:44:36;;;;;;;5.60;2.55;;;;;;;;;;5027223;28;20056;-60
2023/08/22 10:47:04;;;;;;;7.78;3.25;;;;;;;;;;5042533;28;20052;-60
2023/08/22 10:49:31;;;;;;;5.40;2.60;;;;;;;;;;5026399;28;20539;-58
2023/08/22 10:52:04;;;;;;;6.40;2.80;;;;;;;;;;5032817;28;20064;-56
2023/08/22 10:54:31;;;;;;;6.35;2.42;;;;;;;;;;5019492;28;20049;-54
2023/08/22 10:57:14;;;;;;;5.85;2.80;;;;;;;;;;5036621;28;20065;-58
2023/08/22 10:59:59;;;;;;;6.90;3.25;;;;;;;;;;5014466;28;20045;-54
2023/08/22 11:02:27;;;;;;;4.57;3.07;;;;;;;;;;5003728;28;20113;-57
2023/08/22 11:04:57;;;;;;;3.92;2.55;;;;;;;;;;5019704;28;20469;-57
2023/08/22 11:07:25;;;;;;;5.07;3.13;;;;;;;;;;5003724;28;20050;-57
2023/08/22 11:09:53;;;;;;;6.05;3.40;;;;;;;;;;5019940;28;20145;-58
2023/08/22 11:12:20;;;;;;;8.45;3.67;;;;;;;;;;5019145;28;20540;-56
2023/08/22 11:14:47;;;;;;;7.55;3.03;;;;;;;;;;5023179;28;20112;-58
2023/08/22 11:17:14;;;;;;;7.45;2.83;;;;;;;;;;5022726;28;20096;-38
2023/08/22 11:19:44;;;;;;;12.32;3.67;;;;;;;;;;5023709;28;20512;-42
2023/08/22 11:22:10;;;;;;;11.50;3.15;;;;;;;;;;5022666;28;20109;-38
2023/08/22 11:24:40;;;;;;;6.03;3.63;;;;;;;;;;5019532;28;20089;-40
2023/08/22 11:27:06;;;;;;;5.82;3.40;;;;;;;;;;5003674;28;20142;-40
2023/08/22 11:29:44;;;;;;;7.57;4.65;;;;;;;;;;5016784;28;20068;-40
2023/08/22 11:32:26;;;;;;;6.07;3.30;;;;;;;;;;5022082;28;20065;-40
2023/08/22 11:34:59;;;;;;;6.80;3.38;;;;;;;;;;5024570;28;20591;-39
2023/08/22 11:37:25;;;;;;;8.55;3.55;;;;;;;;;;5028943;28;20817;-40
2023/08/22 11:39:53;;;;;;;6.82;3.10;;;;;;;;;;5022461;28;20049;-38
2023/08/22 11:42:20;;;;;;;5.80;3.22;;;;;;;;;;5021209;28;20058;-40
2023/08/22 11:45:04;;;;;;;7.28;3.15;;;;;;;;;;5021720;28;20947;-39
2023/08/22 11:47:38;;;;;;;7.70;2.83;;;;;;;;;;5033945;28;20272;-38
2023/08/22 11:50:05;;;;;;;8.00;3.33;;;;;;;;;;5023003;28;20057;-41
2023/08/22 11:52:31;;;;;;;4.68;3.30;;;;;;;;;;5022634;28;20108;-39
2023/08/22 11:55:05;;;;;;;4.60;3.70;;;;;;;;;;5023721;28;20077;-39
2023/08/22 11:57:32;;;;;;;6.65;4.05;;;;;;;;;;5021958;28;20050;-42
2023/08/22 11:59:59;;;;;;;4.68;3.20;;;;;;;;;;5021620;28;20143;-40
2023/08/22 12:02:25;;;;;;;7.47;3.28;;;;;;;;;;5030900;28;20089;-38
2023/08/22 12:04:55;;;;;;;5.68;2.72;;;;;;;;;;5030910;28;20092;-60
2023/08/22 12:07:22;;;;;;;5.70;2.88;;;;;;;;;;5026671;28;20064;-60
2023/08/22 12:09:57;;;;;;;4.43;2.72;;;;;;;;;;5019115;28;20050;-60
2023/08/22 12:12:23;;;;;;;8.13;2.90;;;;;;;;;;5014966;28;20136;-60
2023/08/22 12:14:50;;;;;;;5.32;3.33;;;;;;;;;;5023332;28;20061;-59
2023/08/22 12:17:16;;;;;;;3.78;2.30;;;;;;;;;;5020599;28;20137;-60
2023/08/22 12:19:43;;;;;;;5.35;2.83;;;;;;;;;;5030793;28;20135;-61
2023/08/22 12:22:10;;;;;;;6.78;3.38;;;;;;;;;;5027917;28;20534;-62
2023/08/22 12:24:36;;;;;;;5.03;2.47;;;;;;;;;;5009667;28;20533;-60
2023/08/22 12:27:03;;;;;;;5.78;2.47;;;;;;;;;;5023528;28;20050;-60
2023/08/22 12:29:29;;;;;;;6.10;2.38;;;;;;;;;;5029619;28;20584;-61
2023/08/22 12:31:56;;;;;;;5.45;2.55;;;;;;;;;;5025136;28;20058;-59
2023/08/22 12:34:22;;;;;;;6.18;2.00;;;;;;;;;;5023540;28;20154;-59
2023/08/22 12:36:50;;;;;;;3.60;2.13;;;;;;;;;;5024900;28;20050;-57
2023/08/22 12:39:16;;;;;;;3.42;1.88;;;;;;;;;;5024681;28;20081;-60
2023/08/22 12:41:42;;;;;;;2.88;1.60;;;;;;;;;;5024272;28;20157;-58
2023/08/22 12:44:09;;;;;;;3.80;2.20;;;;;;;;;;5023665;28;20086;-61
2023/08/22 12:46:35;;;;;;;8.82;1.90;;;;;;;;;;5027064;28;20111;-61
2023/08/22 12:49:02;;;;;;;3.85;1.60;;;;;;;;;;5039328;28;20551;-60
2023/08/22 12:51:28;;;;;;;6.57;1.75;;;;;;;;;;5022131;28;20105;-58
2023/08/22 12:53:55;;;;;;;4.15;1.60;;;;;;;;;;5021381;28;20132;-60
2023/08/22 12:56:26;;;;;;;7.60;1.80;;;;;;;;;;5025728;28;20054;-60
2023/08/22 12:58:56;;;;;;;2.63;1.73;;;;;;;;;;5024807;28;20062;-60
2023/08/22 13:01:22;;;;;;;5.60;1.58;;;;;;;;;;5023300;28;20598;-60
2023/08/22 13:03:52;;;;;;;3.50;1.48;;;;;;;;;;5017790;28;20057;-59
2023/08/22 13:06:19;;;;;;;3.88;2.10;;;;;;;;;;5022640;28;20112;-57
2023/08/22 13:08:46;;;;;;;6.25;2.00;;;;;;;;;;5025133;28;20105;-61
2023/08/22 13:11:25;;;;;;;5.28;2.10;;;;;;;;;;5024956;28;20060;-60
2023/08/22 13:13:51;;;;;;;3.58;1.80;;;;;;;;;;5022747;28;20070;-60
2023/08/22 13:16:18;;;;;;;6.80;2.72;;;;;;;;;;5020635;28;20059;-58
2023/08/22 13:18:47;;;;;;;7.35;3.13;;;;;;;;;;5016493;28;20061;-59
2023/08/22 13:21:14;;;;;;;3.60;2.00;;;;;;;;;;5024840;28;20049;-61
2023/08/22 13:23:40;;;;;;;4.95;1.45;;;;;;;;;;5010388;28;20612;-60
2023/08/22 13:26:07;;;;;;;4.18;1.40;;;;;;;;;;5019248;28;20155;-61
2023/08/22 13:28:33;;;;;;;1.92;1.08;;;;;;;;;;5025629;28;20060;-60
2023/08/22 13:31:00;;;;;;;3.28;1.27;;;;;;;;;;5029557;28;20050;-61
2023/08/22 13:33:26;;;;;;;2.05;1.08;;;;;;;;;;5030043;28;20523;-58
2023/08/22 13:35:52;;;;;;;2.08;1.00;;;;;;;;;;5024997;28;20136;-58
2023/08/22 13:38:19;;;;;;;3.38;1.08;;;;;;;;;;5027487;28;20144;-59
2023/08/22 13:40:45;;;;;;;3.58;1.38;;;;;;;;;;5027466;28;20108;-61
2023/08/22 13:43:12;;;;;;;3.85;1.20;;;;;;;;;;5026603;28;20050;-59
2023/08/22 13:45:38;;;;;;;2.67;1.17;;;;;;;;;;5010346;28;20062;-60
2023/08/22 13:48:05;;;;;;;6.18;1.10;;;;;;;;;;5027375;28;20493;-56
2023/08/22 13:50:31;;;;;;;4.03;1.05;;;;;;;;;;5026564;28;20084;-58
2023/08/22 13:52:57;;;;;;;4.55;1.10;;;;;;;;;;5024271;28;20515;-60
2023/08/22 13:55:24;;;;;;;9.02;1.20;;;;;;;;;;5022748;28;20315;-60
2023/08/22 13:57:50;;;;;;;5.50;1.30;;;;;;;;;;5024717;28;20533;-60
2023/08/22 14:00:17;;;;;;;5.32;1.10;;;;;;;;;;5032734;28;20471;-60
2023/08/22 14:02:43;;;;;;;3.58;1.30;;;;;;;;;;5034597;28;20161;-60
2023/08/22 14:05:10;;;;;;;2.80;0.95;;;;;;;;;;4994587;28;20434;-60
2023/08/22 14:07:37;;;;;;;4.78;1.40;;;;;;;;;;5023511;28;20140;-60
2023/08/22 14:10:04;;;;;;;3.90;1.60;;;;;;;;;;5023477;28;20112;-61
2023/08/22 14:12:31;;;;;;;4.22;1.23;;;;;;;;;;5016431;28;20149;-59
2023/08/22 14:14:57;;;;;;;3.72;1.25;;;;;;;;;;5022599;28;20401;-58
2023/08/22 14:17:26;;;;;;;4.65;1.17;;;;;;;;;;5021771;28;20588;-61
2023/08/22 14:19:53;;;;;;;5.32;1.40;;;;;;;;;;5020430;28;20429;-61
2023/08/22 14:22:19;;;;;;;4.82;1.60;;;;;;;;;;5020127;28;20061;-60
2023/08/22 14:24:45;;;;;;;3.72;1.35;;;;;;;;;;5029440;28;20062;-60
2023/08/22 14:27:12;;;;;;;1.90;1.23;;;;;;;;;;5011838;28;20556;-60
2023/08/22 14:29:39;;;;;;;3.92;1.17;;;;;;;;;;5026305;28;20172;-60
2023/08/22 14:32:05;;;;;;;3.58;1.08;;;;;;;;;;5030815;28;20145;-60
2023/08/22 14:34:31;;;;;;;4.60;1.25;;;;;;;;;;5036817;28;20054;-60
2023/08/22 14:36:58;;;;;;;2.78;1.48;;;;;;;;;;5021432;28;20156;-59
2023/08/22 14:39:42;;;;;;;3.87;1.40;;;;;;;;;;5011596;28;20523;-61
2023/08/22 14:42:08;;;;;;;7.88;1.63;;;;;;;;;;5007396;28;20183;-61